createdAt,value
2017-07-15T00:00:59.297Z,16.26
2017-07-15T00:01:58.963Z,16.27
2017-07-15T00:02:58.941Z,16.2
2017-07-15T00:03:58.929Z,16.27
2017-07-15T00:04:59.218Z,16.12
2017-07-15T00:05:58.890Z,16.23
2017-07-15T00:06:59.197Z,16.02
2017-07-15T00:07:58.876Z,16.04
2017-07-15T00:08:58.527Z,15.97
2017-07-15T00:09:59.157Z,15.9
2017-07-15T00:10:58.809Z,15.89
2017-07-15T00:11:59.119Z,15.92
2017-07-15T00:12:59.081Z,15.98
2017-07-15T00:13:59.078Z,15.89
2017-07-15T00:14:58.738Z,15.79
2017-07-15T00:15:59.038Z,15.83
2017-07-15T00:16:59.029Z,15.87
2017-07-15T00:17:59.017Z,15.87
2017-07-15T00:18:58.998Z,15.92
2017-07-15T00:19:58.969Z,15.83
2017-07-15T00:20:58.638Z,15.76
2017-07-15T00:21:58.930Z,15.64
2017-07-15T00:22:58.948Z,15.58
2017-07-15T00:23:58.587Z,15.75
2017-07-15T00:24:58.578Z,15.71
2017-07-15T00:25:58.864Z,15.77
2017-07-15T00:26:58.528Z,15.79
2017-07-15T00:27:58.532Z,15.85
2017-07-15T00:28:58.487Z,15.77
2017-07-15T00:29:58.809Z,15.76
2017-07-15T00:30:58.471Z,15.57
2017-07-15T00:31:58.456Z,15.69
2017-07-15T00:32:58.418Z,15.72
2017-07-15T00:33:58.738Z,15.67
2017-07-15T00:34:58.705Z,15.67
2017-07-15T00:35:58.679Z,15.67
2017-07-15T00:36:58.428Z,15.71
2017-07-15T00:37:58.409Z,15.64
2017-07-15T00:38:58.330Z,15.57
2017-07-15T00:39:58.328Z,15.54
2017-07-15T00:40:58.599Z,15.47
2017-07-15T00:41:58.594Z,15.53
2017-07-15T00:42:58.243Z,15.58
2017-07-15T00:43:58.570Z,15.57
2017-07-15T00:44:58.547Z,15.72
2017-07-15T00:45:58.516Z,15.64
2017-07-15T00:46:57.884Z,15.72
2017-07-15T00:47:58.167Z,15.75
2017-07-15T00:48:58.459Z,15.76
2017-07-15T00:49:58.447Z,15.68
2017-07-15T00:50:58.447Z,15.65
2017-07-15T00:51:58.088Z,15.61
2017-07-15T00:52:58.407Z,15.6
2017-07-15T00:53:57.753Z,15.57
2017-07-15T00:54:58.365Z,15.62
2017-07-15T00:55:58.347Z,15.62
2017-07-15T00:56:58.337Z,15.58
2017-07-15T00:57:58.307Z,15.69
2017-07-15T00:58:58.287Z,15.76
2017-07-15T00:59:57.967Z,15.8
2017-07-15T01:00:58.266Z,15.75
2017-07-15T01:01:57.937Z,15.75
2017-07-15T01:02:58.227Z,15.67
2017-07-15T01:03:58.197Z,15.68
2017-07-15T01:04:57.867Z,15.76
2017-07-15T01:05:58.180Z,15.77
2017-07-15T01:06:58.168Z,15.83
2017-07-15T01:07:58.122Z,15.83
2017-07-15T01:08:57.807Z,15.79
2017-07-15T01:09:58.106Z,15.8
2017-07-15T01:10:57.774Z,15.76
2017-07-15T01:11:57.759Z,15.77
2017-07-15T01:12:57.730Z,15.72
2017-07-15T01:13:57.728Z,15.72
2017-07-15T01:14:58.009Z,15.67
2017-07-15T01:15:57.677Z,15.64
2017-07-15T01:16:57.667Z,15.77
2017-07-15T01:17:57.961Z,15.65
2017-07-15T01:18:57.953Z,15.69
2017-07-15T01:19:57.928Z,15.69
2017-07-15T01:20:57.918Z,15.71
2017-07-15T01:21:57.914Z,15.76
2017-07-15T01:22:57.875Z,15.8
2017-07-15T01:23:57.866Z,15.76
2017-07-15T01:24:57.846Z,15.75
2017-07-15T01:25:57.528Z,15.6
2017-07-15T01:26:57.493Z,15.62
2017-07-15T01:27:57.777Z,15.61
2017-07-15T01:28:57.772Z,15.75
2017-07-15T01:29:57.772Z,15.69
2017-07-15T01:30:57.729Z,15.72
2017-07-15T01:31:57.748Z,15.61
2017-07-15T01:32:57.386Z,15.64
2017-07-15T01:33:57.676Z,15.68
2017-07-15T01:34:57.676Z,15.69
2017-07-15T01:35:57.656Z,15.64
2017-07-15T01:36:57.654Z,15.52
2017-07-15T01:37:57.607Z,15.6
2017-07-15T01:38:57.603Z,15.57
2017-07-15T01:39:57.585Z,15.5
2017-07-15T01:40:57.575Z,15.61
2017-07-15T01:41:57.235Z,15.57
2017-07-15T01:42:57.525Z,15.57
2017-07-15T01:43:57.255Z,15.58
2017-07-15T01:44:57.492Z,15.5
2017-07-15T01:45:57.486Z,15.54
2017-07-15T01:46:57.147Z,15.53
2017-07-15T01:47:57.121Z,15.47
2017-07-15T01:48:57.124Z,15.57
2017-07-15T01:49:57.414Z,15.57
2017-07-15T01:50:57.065Z,15.52
2017-07-15T01:51:57.105Z,15.61
2017-07-15T01:52:57.042Z,15.54
2017-07-15T01:53:57.026Z,15.47
2017-07-15T01:54:57.338Z,15.5
2017-07-15T01:55:57.298Z,15.54
2017-07-15T01:56:57.286Z,15.52
2017-07-15T01:57:57.260Z,15.47
2017-07-15T01:58:56.933Z,15.44
2017-07-15T01:59:57.019Z,15.42
2017-07-15T02:00:56.934Z,15.44
2017-07-15T02:01:57.213Z,15.46
2017-07-15T02:02:56.974Z,15.43
2017-07-15T02:03:57.173Z,15.44
2017-07-15T02:04:57.194Z,15.44
2017-07-15T02:05:57.133Z,15.42
2017-07-15T02:06:56.861Z,15.4
2017-07-15T02:07:57.087Z,15.46
2017-07-15T02:08:57.194Z,15.53
2017-07-15T02:09:56.732Z,15.47
2017-07-15T02:10:56.778Z,15.54
2017-07-15T02:11:57.014Z,15.35
2017-07-15T02:12:56.677Z,15.46
2017-07-15T02:13:56.774Z,15.4
2017-07-15T02:14:56.658Z,15.46
2017-07-15T02:15:56.633Z,15.42
2017-07-15T02:16:56.606Z,15.46
2017-07-15T02:17:56.685Z,15.42
2017-07-15T02:18:56.585Z,15.43
2017-07-15T02:19:56.576Z,15.42
2017-07-15T02:20:56.568Z,15.44
2017-07-15T02:21:56.833Z,15.5
2017-07-15T02:22:56.515Z,15.47
2017-07-15T02:23:56.797Z,15.4
2017-07-15T02:24:56.783Z,15.47
2017-07-15T02:25:56.451Z,15.43
2017-07-15T02:26:56.123Z,15.42
2017-07-15T02:27:56.420Z,15.46
2017-07-15T02:28:56.714Z,15.42
2017-07-15T02:29:56.384Z,15.54
2017-07-15T02:30:56.738Z,15.54
2017-07-15T02:31:56.044Z,15.47
2017-07-15T02:32:56.715Z,15.53
2017-07-15T02:33:56.305Z,15.64
2017-07-15T02:34:56.351Z,15.54
2017-07-15T02:35:56.601Z,15.61
2017-07-15T02:36:56.645Z,15.5
2017-07-15T02:37:56.567Z,15.54
2017-07-15T02:38:56.230Z,15.54
2017-07-15T02:39:56.201Z,15.68
2017-07-15T02:40:56.207Z,15.57
2017-07-15T02:41:56.160Z,15.58
2017-07-15T02:42:55.848Z,15.6
2017-07-15T02:43:56.135Z,15.67
2017-07-15T02:44:55.804Z,15.58
2017-07-15T02:45:56.481Z,15.57
2017-07-15T02:46:56.397Z,15.54
2017-07-15T02:47:56.062Z,15.54
2017-07-15T02:48:56.356Z,15.64
2017-07-15T02:49:56.025Z,15.67
2017-07-15T02:50:56.030Z,15.54
2017-07-15T02:51:56.320Z,15.61
2017-07-15T02:52:56.308Z,15.53
2017-07-15T02:53:56.267Z,15.54
2017-07-15T02:54:56.258Z,15.54
2017-07-15T02:55:55.933Z,15.53
2017-07-15T02:56:55.917Z,15.54
2017-07-15T02:57:55.894Z,15.58
2017-07-15T02:58:56.184Z,15.54
2017-07-15T02:59:55.854Z,15.6
2017-07-15T03:00:55.835Z,15.62
2017-07-15T03:01:55.815Z,15.65
2017-07-15T03:02:56.128Z,15.65
2017-07-15T03:03:56.093Z,15.65
2017-07-15T03:04:56.084Z,15.62
2017-07-15T03:05:55.434Z,15.61
2017-07-15T03:06:55.725Z,15.62
2017-07-15T03:07:56.028Z,15.69
2017-07-15T03:08:56.009Z,15.71
2017-07-15T03:09:55.373Z,15.71
2017-07-15T03:10:55.356Z,15.72
2017-07-15T03:11:55.966Z,15.72
2017-07-15T03:12:55.627Z,15.76
2017-07-15T03:13:55.623Z,15.72
2017-07-15T03:14:55.909Z,15.77
2017-07-15T03:15:55.888Z,15.72
2017-07-15T03:16:55.874Z,15.8
2017-07-15T03:17:55.645Z,15.77
2017-07-15T03:18:55.534Z,15.76
2017-07-15T03:19:55.865Z,15.8
2017-07-15T03:20:55.793Z,15.85
2017-07-15T03:21:55.835Z,15.79
2017-07-15T03:22:55.458Z,15.76
2017-07-15T03:23:55.484Z,15.69
2017-07-15T03:24:55.734Z,15.6
2017-07-15T03:25:55.415Z,15.65
2017-07-15T03:26:55.385Z,15.6
2017-07-15T03:27:55.677Z,15.64
2017-07-15T03:28:55.356Z,15.54
2017-07-15T03:29:55.335Z,15.62
2017-07-15T03:30:55.317Z,15.49
2017-07-15T03:31:55.351Z,15.65
2017-07-15T03:32:55.307Z,15.57
2017-07-15T03:33:54.992Z,15.68
2017-07-15T03:34:55.257Z,15.71
2017-07-15T03:35:55.600Z,15.75
2017-07-15T03:36:55.226Z,15.86
2017-07-15T03:37:55.512Z,15.77
2017-07-15T03:38:54.874Z,15.86
2017-07-15T03:39:55.467Z,15.86
2017-07-15T03:40:55.153Z,15.92
2017-07-15T03:41:55.129Z,15.94
2017-07-15T03:42:55.425Z,15.8
2017-07-15T03:43:55.400Z,15.82
2017-07-15T03:44:54.765Z,15.76
2017-07-15T03:45:55.064Z,15.77
2017-07-15T03:46:54.725Z,15.76
2017-07-15T03:47:55.023Z,15.76
2017-07-15T03:48:55.004Z,15.79
2017-07-15T03:49:55.355Z,15.75
2017-07-15T03:50:55.296Z,15.72
2017-07-15T03:51:55.312Z,15.75
2017-07-15T03:52:54.991Z,15.77
2017-07-15T03:53:55.230Z,15.72
2017-07-15T03:54:54.904Z,15.72
2017-07-15T03:55:55.217Z,15.82
2017-07-15T03:56:55.184Z,15.87
2017-07-15T03:57:55.165Z,15.85
2017-07-15T03:58:55.148Z,16
2017-07-15T03:59:55.137Z,15.85
2017-07-15T04:00:54.785Z,15.76
2017-07-15T04:01:54.774Z,15.85
2017-07-15T04:02:55.085Z,15.89
2017-07-15T04:03:54.747Z,15.76
2017-07-15T04:04:55.103Z,15.87
2017-07-15T04:05:55.025Z,15.85
2017-07-15T04:06:54.376Z,15.92
2017-07-15T04:07:54.675Z,16
2017-07-15T04:08:54.345Z,15.92
2017-07-15T04:09:54.999Z,15.9
2017-07-15T04:10:54.954Z,15.87
2017-07-15T04:11:54.920Z,15.9
2017-07-15T04:12:54.683Z,15.9
2017-07-15T04:13:54.875Z,15.87
2017-07-15T04:14:54.946Z,15.95
2017-07-15T04:15:54.865Z,15.94
2017-07-15T04:16:54.518Z,16
2017-07-15T04:17:54.516Z,16.01
2017-07-15T04:18:54.810Z,16.01
2017-07-15T04:19:54.775Z,16.12
2017-07-15T04:20:54.474Z,16.04
2017-07-15T04:21:54.751Z,16.05
2017-07-15T04:22:54.725Z,16.02
2017-07-15T04:23:54.404Z,16.05
2017-07-15T04:24:54.376Z,16.02
2017-07-15T04:25:54.368Z,16
2017-07-15T04:26:54.663Z,16.08
2017-07-15T04:27:54.338Z,16.05
2017-07-15T04:28:53.998Z,16.05
2017-07-15T04:29:54.307Z,16.08
2017-07-15T04:30:54.285Z,16.07
2017-07-15T04:31:54.578Z,16.16
2017-07-15T04:32:54.233Z,16.07
2017-07-15T04:33:54.235Z,16.1
2017-07-15T04:34:54.548Z,16.02
2017-07-15T04:35:54.518Z,16.05
2017-07-15T04:36:54.172Z,16.12
2017-07-15T04:37:54.158Z,16.27
2017-07-15T04:38:54.466Z,16.21
2017-07-15T04:39:54.122Z,16.15
2017-07-15T04:40:53.794Z,16.16
2017-07-15T04:41:54.403Z,16.23
2017-07-15T04:42:54.396Z,16.26
2017-07-15T04:43:54.093Z,16.17
2017-07-15T04:44:54.036Z,16.26
2017-07-15T04:45:54.362Z,16.12
2017-07-15T04:46:54.321Z,16.31
2017-07-15T04:47:54.301Z,16.21
2017-07-15T04:48:54.275Z,16.23
2017-07-15T04:49:54.290Z,16.15
2017-07-15T04:50:53.938Z,16.21
2017-07-15T04:51:53.927Z,16.2
2017-07-15T04:52:54.238Z,16.17
2017-07-15T04:53:53.883Z,16.16
2017-07-15T04:54:54.180Z,16.16
2017-07-15T04:55:53.850Z,16.16
2017-07-15T04:56:54.148Z,16.24
2017-07-15T04:57:54.185Z,16.13
2017-07-15T04:58:53.807Z,16.21
2017-07-15T04:59:53.779Z,16.13
2017-07-15T05:00:53.458Z,16.24
2017-07-15T05:01:53.751Z,16.17
2017-07-15T05:02:54.037Z,16.17
2017-07-15T05:03:53.747Z,16.31
2017-07-15T05:04:54.011Z,16.32
2017-07-15T05:05:53.992Z,16.26
2017-07-15T05:06:53.351Z,16.28
2017-07-15T05:07:53.635Z,16.41
2017-07-15T05:08:53.318Z,16.38
2017-07-15T05:09:53.617Z,16.31
2017-07-15T05:10:53.907Z,16.31
2017-07-15T05:11:53.576Z,16.35
2017-07-15T05:12:53.255Z,16.34
2017-07-15T05:13:53.257Z,16.35
2017-07-15T05:14:53.536Z,16.28
2017-07-15T05:15:53.829Z,16.34
2017-07-15T05:16:53.227Z,16.35
2017-07-15T05:17:53.167Z,16.26
2017-07-15T05:18:53.487Z,16.32
2017-07-15T05:19:53.450Z,16.31
2017-07-15T05:20:53.125Z,16.28
2017-07-15T05:21:53.417Z,16.26
2017-07-15T05:22:53.396Z,16.24
2017-07-15T05:23:53.386Z,16.35
2017-07-15T05:24:53.677Z,16.32
2017-07-15T05:25:53.032Z,16.35
2017-07-15T05:26:53.365Z,16.35
2017-07-15T05:27:53.638Z,16.35
2017-07-15T05:28:53.277Z,16.39
2017-07-15T05:29:53.604Z,16.36
2017-07-15T05:30:53.584Z,16.32
2017-07-15T05:31:53.591Z,16.34
2017-07-15T05:32:53.525Z,16.32
2017-07-15T05:33:53.221Z,16.31
2017-07-15T05:34:53.507Z,16.34
2017-07-15T05:35:53.193Z,16.28
2017-07-15T05:36:53.157Z,16.32
2017-07-15T05:37:53.149Z,16.38
2017-07-15T05:38:53.457Z,16.34
2017-07-15T05:39:53.426Z,16.41
2017-07-15T05:40:53.115Z,16.48
2017-07-15T05:41:53.085Z,16.46
2017-07-15T05:42:53.069Z,16.46
2017-07-15T05:43:53.087Z,16.35
2017-07-15T05:44:53.017Z,16.42
2017-07-15T05:45:53.009Z,16.5
2017-07-15T05:46:53.344Z,16.53
2017-07-15T05:47:53.271Z,16.61
2017-07-15T05:48:53.259Z,16.61
2017-07-15T05:49:53.137Z,16.63
2017-07-15T05:50:52.930Z,16.76
2017-07-15T05:51:53.209Z,16.68
2017-07-15T05:52:52.739Z,16.68
2017-07-15T05:53:53.306Z,16.75
2017-07-15T05:54:52.866Z,16.79
2017-07-15T05:55:52.857Z,16.68
2017-07-15T05:56:53.266Z,16.75
2017-07-15T05:57:52.899Z,16.71
2017-07-15T05:58:52.796Z,16.68
2017-07-15T05:59:53.109Z,16.79
2017-07-15T06:00:52.753Z,16.79
2017-07-15T06:01:53.050Z,16.89
2017-07-15T06:02:53.072Z,16.94
2017-07-15T06:03:52.709Z,16.9
2017-07-15T06:04:53.028Z,16.94
2017-07-15T06:05:53.084Z,16.98
2017-07-15T06:06:52.991Z,17.09
2017-07-15T06:07:53.057Z,17.12
2017-07-15T06:08:52.952Z,17.21
2017-07-15T06:09:52.607Z,17.19
2017-07-15T06:10:52.944Z,17.3
2017-07-15T06:11:52.970Z,17.49
2017-07-15T06:12:52.884Z,17.49
2017-07-15T06:13:52.938Z,17.62
2017-07-15T06:14:52.525Z,17.6
2017-07-15T06:15:52.531Z,17.68
2017-07-15T06:16:52.830Z,17.6
2017-07-15T06:17:52.841Z,17.71
2017-07-15T06:18:52.470Z,17.65
2017-07-15T06:19:52.885Z,17.74
2017-07-15T06:20:52.466Z,17.75
2017-07-15T06:21:52.746Z,17.72
2017-07-15T06:22:52.739Z,17.75
2017-07-15T06:23:52.388Z,17.74
2017-07-15T06:24:52.756Z,17.72
2017-07-15T06:25:52.686Z,17.71
2017-07-15T06:26:52.348Z,17.78
2017-07-15T06:27:52.317Z,17.68
2017-07-15T06:28:52.317Z,17.68
2017-07-15T06:29:52.617Z,17.67
2017-07-15T06:30:52.637Z,17.71
2017-07-15T06:31:52.269Z,17.65
2017-07-15T06:32:52.257Z,17.7
2017-07-15T06:33:51.918Z,17.68
2017-07-15T06:34:52.557Z,17.68
2017-07-15T06:35:52.197Z,17.71
2017-07-15T06:36:52.524Z,17.67
2017-07-15T06:37:52.479Z,17.65
2017-07-15T06:38:52.522Z,17.67
2017-07-15T06:39:52.137Z,17.58
2017-07-15T06:40:52.440Z,17.49
2017-07-15T06:41:52.109Z,17.58
2017-07-15T06:42:52.087Z,17.48
2017-07-15T06:43:51.761Z,17.48
2017-07-15T06:44:52.072Z,17.44
2017-07-15T06:45:52.050Z,17.3
2017-07-15T06:46:52.446Z,17.33
2017-07-15T06:47:52.320Z,17.36
2017-07-15T06:48:52.009Z,17.36
2017-07-15T06:49:51.979Z,17.44
2017-07-15T06:50:52.298Z,17.48
2017-07-15T06:51:51.639Z,17.51
2017-07-15T06:52:51.619Z,17.42
2017-07-15T06:53:51.918Z,17.52
2017-07-15T06:54:52.218Z,17.46
2017-07-15T06:55:52.216Z,17.44
2017-07-15T06:56:51.876Z,17.45
2017-07-15T06:57:52.189Z,17.44
2017-07-15T06:58:52.167Z,17.44
2017-07-15T06:59:52.146Z,17.45
2017-07-15T07:00:51.813Z,17.4
2017-07-15T07:01:52.100Z,17.45
2017-07-15T07:02:51.773Z,17.42
2017-07-15T07:03:51.446Z,17.45
2017-07-15T07:04:52.066Z,17.48
2017-07-15T07:05:52.038Z,17.49
2017-07-15T07:06:51.716Z,17.6
2017-07-15T07:07:52.014Z,17.58
2017-07-15T07:08:51.996Z,17.67
2017-07-15T07:09:51.665Z,17.7
2017-07-15T07:10:51.964Z,17.72
2017-07-15T07:11:51.326Z,17.62
2017-07-15T07:12:51.617Z,17.72
2017-07-15T07:13:51.599Z,17.75
2017-07-15T07:14:51.275Z,17.83
2017-07-15T07:15:51.565Z,17.78
2017-07-15T07:16:51.856Z,17.83
2017-07-15T07:17:51.267Z,17.75
2017-07-15T07:18:51.528Z,17.77
2017-07-15T07:19:51.514Z,17.67
2017-07-15T07:20:51.820Z,17.67
2017-07-15T07:21:51.810Z,17.64
2017-07-15T07:22:51.784Z,17.64
2017-07-15T07:23:51.125Z,17.7
2017-07-15T07:24:51.115Z,17.68
2017-07-15T07:25:51.728Z,17.67
2017-07-15T07:26:51.396Z,17.68
2017-07-15T07:27:51.693Z,17.77
2017-07-15T07:28:51.691Z,17.85
2017-07-15T07:29:51.669Z,17.68
2017-07-15T07:30:51.647Z,17.77
2017-07-15T07:31:51.629Z,17.83
2017-07-15T07:32:50.984Z,17.78
2017-07-15T07:33:50.975Z,17.86
2017-07-15T07:34:51.601Z,17.92
2017-07-15T07:35:50.946Z,17.98
2017-07-15T07:36:51.555Z,17.93
2017-07-15T07:37:51.232Z,17.95
2017-07-15T07:38:51.209Z,18
2017-07-15T07:39:51.518Z,18.02
2017-07-15T07:40:51.173Z,18.18
2017-07-15T07:41:51.171Z,18.23
2017-07-15T07:42:51.138Z,18.29
2017-07-15T07:43:51.458Z,18.25
2017-07-15T07:44:50.802Z,18.3
2017-07-15T07:45:51.411Z,18.26
2017-07-15T07:46:50.772Z,18.3
2017-07-15T07:47:51.076Z,18.27
2017-07-15T07:48:51.063Z,18.25
2017-07-15T07:49:51.058Z,18.33
2017-07-15T07:50:51.086Z,18.42
2017-07-15T07:51:51.333Z,18.42
2017-07-15T07:52:51.003Z,18.38
2017-07-15T07:53:51.122Z,18.44
2017-07-15T07:54:51.269Z,18.55
2017-07-15T07:55:51.258Z,18.6
2017-07-15T07:56:51.028Z,18.7
2017-07-15T07:57:50.648Z,18.7
2017-07-15T07:58:51.218Z,18.6
2017-07-15T07:59:50.996Z,18.44
2017-07-15T08:00:50.977Z,18.51
2017-07-15T08:01:51.191Z,18.56
2017-07-15T08:02:50.536Z,18.35
2017-07-15T08:03:51.146Z,18.3
2017-07-15T08:04:50.878Z,18.33
2017-07-15T08:05:51.119Z,18.38
2017-07-15T08:06:50.477Z,18.37
2017-07-15T08:07:50.760Z,18.42
2017-07-15T08:08:50.827Z,18.4
2017-07-15T08:09:51.048Z,18.44
2017-07-15T08:10:50.844Z,18.45
2017-07-15T08:11:50.715Z,18.6
2017-07-15T08:12:51.028Z,18.62
2017-07-15T08:13:51.017Z,18.75
2017-07-15T08:14:50.695Z,18.95
2017-07-15T08:15:50.952Z,19.25
2017-07-15T08:16:50.980Z,19.55
2017-07-15T08:17:50.316Z,19.73
2017-07-15T08:18:50.619Z,20.03
2017-07-15T08:19:50.615Z,20.32
2017-07-15T08:20:50.591Z,20.49
2017-07-15T08:21:50.905Z,20.67
2017-07-15T08:22:50.942Z,20.64
2017-07-15T08:23:50.546Z,20.78
2017-07-15T08:24:50.847Z,20.67
2017-07-15T08:25:50.539Z,20.67
2017-07-15T08:26:50.835Z,20.7
2017-07-15T08:27:50.199Z,20.54
2017-07-15T08:28:50.520Z,20.58
2017-07-15T08:29:50.824Z,20.6
2017-07-15T08:30:50.516Z,20.64
2017-07-15T08:31:50.436Z,20.6
2017-07-15T08:32:50.754Z,20.57
2017-07-15T08:33:50.415Z,20.54
2017-07-15T08:34:50.740Z,20.44
2017-07-15T08:35:50.705Z,20.33
2017-07-15T08:36:50.705Z,20.38
2017-07-15T08:37:50.729Z,20.33
2017-07-15T08:38:50.665Z,20.11
2017-07-15T08:39:50.764Z,20.01
2017-07-15T08:40:50.349Z,19.92
2017-07-15T08:41:50.652Z,19.76
2017-07-15T08:42:50.318Z,19.67
2017-07-15T08:43:50.604Z,19.66
2017-07-15T08:44:50.292Z,19.67
2017-07-15T08:45:50.570Z,19.49
2017-07-15T08:46:50.257Z,19.52
2017-07-15T08:47:50.545Z,19.38
2017-07-15T08:48:49.916Z,19.41
2017-07-15T08:49:50.194Z,19.44
2017-07-15T08:50:50.506Z,19.41
2017-07-15T08:51:50.503Z,19.44
2017-07-15T08:52:50.495Z,19.36
2017-07-15T08:53:50.476Z,19.26
2017-07-15T08:54:49.818Z,19.43
2017-07-15T08:55:50.440Z,19.51
2017-07-15T08:56:50.105Z,19.52
2017-07-15T08:57:50.102Z,19.56
2017-07-15T08:58:50.411Z,19.58
2017-07-15T08:59:50.066Z,19.63
2017-07-15T09:00:50.378Z,19.77
2017-07-15T09:01:50.367Z,19.77
2017-07-15T09:02:50.350Z,19.88
2017-07-15T09:03:50.350Z,19.92
2017-07-15T09:04:50.317Z,19.96
2017-07-15T09:05:50.306Z,19.98
2017-07-15T09:06:50.318Z,19.96
2017-07-15T09:07:49.639Z,20.06
2017-07-15T09:08:50.269Z,20.11
2017-07-15T09:09:49.938Z,20.14
2017-07-15T09:10:50.220Z,20.18
2017-07-15T09:11:49.917Z,20.28
2017-07-15T09:12:50.195Z,20.2
2017-07-15T09:13:50.188Z,20.17
2017-07-15T09:14:50.197Z,20.22
2017-07-15T09:15:50.173Z,20.44
2017-07-15T09:16:50.156Z,20.54
2017-07-15T09:17:50.140Z,20.84
2017-07-15T09:18:50.107Z,20.94
2017-07-15T09:19:50.116Z,20.99
2017-07-15T09:20:50.116Z,21.15
2017-07-15T09:21:50.069Z,21.46
2017-07-15T09:22:50.073Z,21.79
2017-07-15T09:23:50.077Z,21.86
2017-07-15T09:24:50.063Z,22.11
2017-07-15T09:25:50.048Z,22.47
2017-07-15T09:26:50.046Z,22.67
2017-07-15T09:27:49.696Z,22.08
2017-07-15T09:28:50.005Z,21.7
2017-07-15T09:29:49.995Z,21.65
2017-07-15T09:30:50.076Z,21.39
2017-07-15T09:31:49.971Z,21.39
2017-07-15T09:32:49.979Z,21.22
2017-07-15T09:33:49.961Z,21.21
2017-07-15T09:34:49.659Z,21.25
2017-07-15T09:35:49.607Z,21.06
2017-07-15T09:36:50.044Z,21.09
2017-07-15T09:37:49.901Z,21.04
2017-07-15T09:38:49.299Z,21.04
2017-07-15T09:39:49.558Z,20.95
2017-07-15T09:40:49.927Z,20.97
2017-07-15T09:41:49.549Z,20.84
2017-07-15T09:42:49.894Z,20.72
2017-07-15T09:43:49.518Z,20.72
2017-07-15T09:44:49.840Z,20.74
2017-07-15T09:45:49.878Z,20.74
2017-07-15T09:46:49.803Z,20.69
2017-07-15T09:47:49.472Z,20.72
2017-07-15T09:48:49.766Z,20.69
2017-07-15T09:49:49.549Z,20.63
2017-07-15T09:50:49.490Z,20.52
2017-07-15T09:51:49.117Z,20.57
2017-07-15T09:52:49.719Z,20.54
2017-07-15T09:53:49.527Z,20.57
2017-07-15T09:54:49.119Z,20.55
2017-07-15T09:55:49.692Z,20.54
2017-07-15T09:56:49.367Z,20.43
2017-07-15T09:57:49.359Z,20.55
2017-07-15T09:58:49.650Z,20.55
2017-07-15T09:59:49.718Z,20.62
2017-07-15T10:00:49.317Z,20.73
2017-07-15T10:01:49.288Z,20.7
2017-07-15T10:02:49.597Z,20.92
2017-07-15T10:03:49.265Z,21.25
2017-07-15T10:04:49.587Z,21.29
2017-07-15T10:05:49.561Z,21.49
2017-07-15T10:06:49.237Z,21.44
2017-07-15T10:07:49.548Z,21.41
2017-07-15T10:08:49.549Z,21.56
2017-07-15T10:09:49.502Z,21.83
2017-07-15T10:10:49.500Z,22
2017-07-15T10:11:49.188Z,22.12
2017-07-15T10:12:49.183Z,22.08
2017-07-15T10:13:49.146Z,22.18
2017-07-15T10:14:49.135Z,22.33
2017-07-15T10:15:49.437Z,22.21
2017-07-15T10:16:49.108Z,22.11
2017-07-15T10:17:49.239Z,21.96
2017-07-15T10:18:49.087Z,21.88
2017-07-15T10:19:49.387Z,21.95
2017-07-15T10:20:49.382Z,22.02
2017-07-15T10:21:49.383Z,22.14
2017-07-15T10:22:48.739Z,22.4
2017-07-15T10:23:49.357Z,22.61
2017-07-15T10:24:48.726Z,22.62
2017-07-15T10:25:49.346Z,22.55
2017-07-15T10:26:49.326Z,22.59
2017-07-15T10:27:49.305Z,22.59
2017-07-15T10:28:48.985Z,22.77
2017-07-15T10:29:48.975Z,22.8
2017-07-15T10:30:49.015Z,22.92
2017-07-15T10:31:48.955Z,22.79
2017-07-15T10:32:49.285Z,22.91
2017-07-15T10:33:49.262Z,22.91
2017-07-15T10:34:48.975Z,22.98
2017-07-15T10:35:48.913Z,23.02
2017-07-15T10:36:49.288Z,22.94
2017-07-15T10:37:49.206Z,22.79
2017-07-15T10:38:49.315Z,22.77
2017-07-15T10:39:49.190Z,22.66
2017-07-15T10:40:49.190Z,22.65
2017-07-15T10:41:49.259Z,22.51
2017-07-15T10:42:49.165Z,22.54
2017-07-15T10:43:49.154Z,22.29
2017-07-15T10:44:48.817Z,22.15
2017-07-15T10:45:48.796Z,22.37
2017-07-15T10:46:48.904Z,22.4
2017-07-15T10:47:49.195Z,22.58
2017-07-15T10:48:48.764Z,22.74
2017-07-15T10:49:49.196Z,22.97
2017-07-15T10:50:49.065Z,23.32
2017-07-15T10:51:48.736Z,23.48
2017-07-15T10:52:49.044Z,23.8
2017-07-15T10:53:48.714Z,23.85
2017-07-15T10:54:49.075Z,23.99
2017-07-15T10:55:49.035Z,24.02
2017-07-15T10:56:49.000Z,23.89
2017-07-15T10:57:48.683Z,23.75
2017-07-15T10:58:48.674Z,23.78
2017-07-15T10:59:48.991Z,23.47
2017-07-15T11:00:48.975Z,23.51
2017-07-15T11:01:48.953Z,23.35
2017-07-15T11:02:48.945Z,23.28
2017-07-15T11:03:48.924Z,23.33
2017-07-15T11:04:48.603Z,23.32
2017-07-15T11:05:48.594Z,23.41
2017-07-15T11:06:48.579Z,23.17
2017-07-15T11:07:48.265Z,22.58
2017-07-15T11:08:48.881Z,22.7
2017-07-15T11:09:48.879Z,22.67
2017-07-15T11:10:48.530Z,22.79
2017-07-15T11:11:48.852Z,22.82
2017-07-15T11:12:48.523Z,22.8
2017-07-15T11:13:48.521Z,22.72
2017-07-15T11:14:48.513Z,22.36
2017-07-15T11:15:48.802Z,22.45
2017-07-15T11:16:48.476Z,22.47
2017-07-15T11:17:48.784Z,22.54
2017-07-15T11:18:48.759Z,22.55
2017-07-15T11:19:48.453Z,22.55
2017-07-15T11:20:48.743Z,22.43
2017-07-15T11:21:48.423Z,22.24
2017-07-15T11:22:48.411Z,22.33
2017-07-15T11:23:48.394Z,22.17
2017-07-15T11:24:48.393Z,22.1
2017-07-15T11:25:48.684Z,22.06
2017-07-15T11:26:48.664Z,22.12
2017-07-15T11:27:48.681Z,22.1
2017-07-15T11:28:48.335Z,22.06
2017-07-15T11:29:48.643Z,22.15
2017-07-15T11:30:48.315Z,22.06
2017-07-15T11:31:47.986Z,21.97
2017-07-15T11:32:48.617Z,21.97
2017-07-15T11:33:48.614Z,21.96
2017-07-15T11:34:48.614Z,22
2017-07-15T11:35:48.264Z,21.96
2017-07-15T11:36:48.245Z,21.99
2017-07-15T11:37:48.236Z,21.86
2017-07-15T11:38:48.555Z,21.84
2017-07-15T11:39:48.525Z,21.96
2017-07-15T11:40:48.514Z,22.12
2017-07-15T11:41:48.186Z,22.25
2017-07-15T11:42:48.166Z,22.45
2017-07-15T11:43:48.186Z,22.57
2017-07-15T11:44:48.161Z,22.57
2017-07-15T11:45:48.163Z,22.67
2017-07-15T11:46:48.124Z,22.8
2017-07-15T11:47:48.110Z,22.98
2017-07-15T11:48:48.529Z,22.95
2017-07-15T11:49:48.095Z,22.92
2017-07-15T11:50:48.408Z,22.97
2017-07-15T11:51:48.065Z,23.02
2017-07-15T11:52:48.086Z,22.92
2017-07-15T11:53:48.356Z,23.06
2017-07-15T11:54:48.357Z,23.02
2017-07-15T11:55:48.342Z,22.91
2017-07-15T11:56:48.030Z,22.88
2017-07-15T11:57:48.315Z,22.94
2017-07-15T11:58:48.040Z,22.89
2017-07-15T11:59:48.295Z,22.92
2017-07-15T12:00:48.280Z,22.84
2017-07-15T12:01:48.276Z,22.95
2017-07-15T12:02:48.257Z,23.03
2017-07-15T12:03:47.928Z,22.94
2017-07-15T12:04:48.235Z,22.94
2017-07-15T12:05:48.237Z,22.91
2017-07-15T12:06:48.225Z,23.06
2017-07-15T12:07:48.194Z,23.17
2017-07-15T12:08:48.177Z,23.28
2017-07-15T12:09:47.874Z,23.35
2017-07-15T12:10:48.169Z,23.47
2017-07-15T12:11:48.166Z,23.28
2017-07-15T12:12:48.151Z,23.4
2017-07-15T12:13:48.131Z,23.32
2017-07-15T12:14:48.126Z,23.44
2017-07-15T12:15:48.126Z,23.63
2017-07-15T12:16:47.786Z,23.8
2017-07-15T12:17:48.088Z,23.78
2017-07-15T12:18:48.075Z,23.99
2017-07-15T12:19:48.074Z,24.12
2017-07-15T12:20:48.065Z,24.37
2017-07-15T12:21:48.061Z,24.57
2017-07-15T12:22:47.410Z,24.46
2017-07-15T12:23:48.029Z,24.42
2017-07-15T12:24:48.004Z,24.03
2017-07-15T12:25:47.694Z,23.82
2017-07-15T12:26:47.995Z,24.02
2017-07-15T12:27:47.998Z,24.07
2017-07-15T12:28:47.981Z,24.24
2017-07-15T12:29:47.655Z,24.34
2017-07-15T12:30:47.972Z,24.49
2017-07-15T12:31:47.960Z,24.49
2017-07-15T12:32:47.625Z,24.42
2017-07-15T12:33:48.055Z,24.29
2017-07-15T12:34:47.924Z,24.19
2017-07-15T12:35:47.912Z,23.99
2017-07-15T12:36:47.584Z,23.82
2017-07-15T12:37:47.915Z,23.96
2017-07-15T12:38:47.879Z,24.06
2017-07-15T12:39:47.545Z,24.33
2017-07-15T12:40:47.928Z,24.44
2017-07-15T12:41:47.839Z,24.39
2017-07-15T12:42:47.505Z,24.32
2017-07-15T12:43:47.504Z,24.49
2017-07-15T12:44:47.504Z,24.57
2017-07-15T12:45:47.167Z,24.7
2017-07-15T12:46:47.568Z,24.8
2017-07-15T12:47:47.835Z,24.43
2017-07-15T12:48:47.440Z,23.95
2017-07-15T12:49:47.808Z,23.95
2017-07-15T12:50:47.804Z,23.89
2017-07-15T12:51:47.746Z,23.87
2017-07-15T12:52:47.776Z,23.78
2017-07-15T12:53:47.729Z,24.06
2017-07-15T12:54:47.739Z,24.4
2017-07-15T12:55:47.688Z,24.65